Time;durP1;ratioP1;P1;durP2;ratioP2;P2;SDS_P1;SDS_P2;PMS_P1;PMS_P2;Temp;Humidity;BMP_temperature;BMP_pressure;BME280_temperature;BME280_humidity;BME280_pressure;Samples;Min_cycle;Max_cycle;Signal;HPM_P1;HPM_P2
2021/12/16 00:08:34;;;;;;;20.83;13.32;;;6.20;99.90;;;;;;5173596;27;20054;-81
2021/12/16 00:11:19;;;;;;;18.42;12.90;;;6.20;99.90;;;;;;5153138;27;20066;-81
2021/12/16 00:33:38;;;;;;;18.17;12.80;;;6.30;99.90;;;;;;5142578;27;20051;-81
2021/12/16 00:36:10;;;;;;;17.10;11.90;;;6.30;99.90;;;;;;5138981;27;20124;-81
2021/12/16 00:38:40;;;;;;;19.38;12.63;;;6.30;99.90;;;;;;5131016;27;20519;-83
2021/12/16 00:41:07;;;;;;;17.63;11.88;;;6.30;99.90;;;;;;5143809;27;20047;-81
2021/12/16 00:43:49;;;;;;;20.33;12.90;;;6.30;99.90;;;;;;5140534;27;20046;-81
2021/12/16 00:54:14;;;;;;;17.15;12.10;;;6.30;99.90;;;;;;5161426;27;20055;-81
2021/12/16 00:56:50;;;;;;;16.75;11.45;;;6.30;99.90;;;;;;5138859;27;20081;-81
2021/12/16 00:59:19;;;;;;;18.90;11.88;;;6.30;99.90;;;;;;5123025;27;20047;-81
2021/12/16 01:01:56;;;;;;;18.80;11.38;;;6.30;99.90;;;;;;5142749;27;20128;-83
2021/12/16 01:35:38;;;;;;;16.27;11.90;;;6.30;99.90;;;;;;5161424;27;20097;-81
2021/12/16 01:39:32;;;;;;;18.20;12.63;;;6.30;99.90;;;;;;5141669;27;20095;-82
2021/12/16 01:49:25;;;;;;;17.55;11.80;;;6.30;99.90;;;;;;5160752;27;20054;-82
2021/12/16 01:52:48;;;;;;;17.23;12.15;;;6.30;99.90;;;;;;5140285;27;20565;-82
2021/12/16 01:57:24;;;;;;;18.90;12.88;;;6.30;99.90;;;;;;5161933;27;20047;-82
2021/12/16 02:00:02;;;;;;;18.92;12.90;;;6.30;99.90;;;;;;5140955;27;20074;-82
2021/12/16 02:02:47;;;;;;;17.63;12.15;;;6.30;99.90;;;;;;5139848;27;20085;-82
2021/12/16 02:05:51;;;;;;;17.90;11.73;;;6.30;99.90;;;;;;5121923;27;20047;-82
2021/12/16 02:08:22;;;;;;;15.30;11.18;;;6.30;99.90;;;;;;5141403;27;20081;-82
2021/12/16 02:11:07;;;;;;;15.45;11.38;;;6.30;99.90;;;;;;5123877;27;20104;-81
2021/12/16 02:37:43;;;;;;;20.23;14.25;;;6.30;99.90;;;;;;5141209;27;20333;-83
2021/12/16 02:40:10;;;;;;;18.15;12.25;;;6.30;99.90;;;;;;5124338;27;20051;-82
2021/12/16 02:42:51;;;;;;;22.45;13.73;;;6.30;99.90;;;;;;5140935;27;20050;-82
2021/12/16 02:50:52;;;;;;;18.70;13.45;;;6.30;99.90;;;;;;5147698;27;20150;-82
2021/12/16 02:53:19;;;;;;;23.33;14.63;;;6.30;99.90;;;;;;5125924;27;20043;-83
2021/12/16 02:55:46;;;;;;;20.83;14.57;;;6.30;99.90;;;;;;5123917;28;20100;-82
2021/12/16 02:58:14;;;;;;;20.45;13.93;;;6.30;99.90;;;;;;5111083;28;20051;-82
2021/12/16 03:20:56;;;;;;;23.08;15.70;;;6.30;99.90;;;;;;5152617;27;20042;-81
2021/12/16 03:29:12;;;;;;;24.80;16.33;;;6.30;99.90;;;;;;5152537;27;20051;-81
2021/12/16 03:37:18;;;;;;;29.05;17.25;;;6.30;99.90;;;;;;5152769;27;20043;-82
2021/12/16 03:39:47;;;;;;;27.30;16.95;;;6.30;99.90;;;;;;5137275;27;20077;-81
2021/12/16 03:42:37;;;;;;;29.13;18.23;;;6.30;99.90;;;;;;5144805;27;20050;-81
2021/12/16 03:46:25;;;;;;;30.45;17.23;;;6.30;99.90;;;;;;5134252;27;20064;-81
2021/12/16 03:48:08;;;;;;;30.17;18.38;;;6.30;99.90;;;;;;5169220;27;20047;-81
2021/12/16 03:50:35;;;;;;;27.10;17.10;;;6.30;99.90;;;;;;5154440;27;20095;-81
2021/12/16 03:53:04;;;;;;;28.92;18.13;;;6.30;99.90;;;;;;5152690;27;20046;-81
2021/12/16 03:55:31;;;;;;;26.10;17.17;;;6.30;99.90;;;;;;5142724;27;20047;-81
2021/12/16 03:57:59;;;;;;;26.98;17.52;;;6.30;99.90;;;;;;5133126;27;20099;-82
2021/12/16 04:00:33;;;;;;;29.35;17.88;;;6.30;99.90;;;;;;5144137;27;20071;-82
2021/12/16 04:03:01;;;;;;;27.48;18.13;;;6.30;99.90;;;;;;5154284;27;20046;-82
2021/12/16 04:05:29;;;;;;;29.13;18.25;;;6.40;99.90;;;;;;5145859;27;20047;-81
2021/12/16 04:07:56;;;;;;;29.25;17.70;;;6.40;99.90;;;;;;5133599;27;20047;-81
2021/12/16 04:10:35;;;;;;;29.15;17.73;;;6.40;99.90;;;;;;5136258;27;20059;-81
2021/12/16 04:13:06;;;;;;;34.28;19.38;;;6.30;99.90;;;;;;5150248;27;20043;-82
2021/12/16 04:15:33;;;;;;;33.40;19.80;;;6.40;99.90;;;;;;5140952;27;20107;-81
2021/12/16 04:18:01;;;;;;;33.92;19.98;;;6.40;99.90;;;;;;5140263;27;20080;-81
2021/12/16 04:20:28;;;;;;;30.90;19.65;;;6.40;99.90;;;;;;5140354;27;20734;-82
2021/12/16 04:22:56;;;;;;;34.20;20.42;;;6.40;99.90;;;;;;5135158;27;20039;-81
2021/12/16 04:25:31;;;;;;;31.95;19.98;;;6.40;99.90;;;;;;5131853;27;20047;-84
2021/12/16 04:28:00;;;;;;;37.95;21.77;;;6.50;99.90;;;;;;5131540;27;20117;-81
2021/12/16 04:30:29;;;;;;;36.85;22.73;;;6.50;99.90;;;;;;5139846;27;20047;-82
2021/12/16 04:32:56;;;;;;;36.90;23.23;;;6.50;99.90;;;;;;5139750;27;20043;-81
2021/12/16 04:35:23;;;;;;;39.22;23.58;;;6.50;99.90;;;;;;5127492;27;20047;-81
2021/12/16 04:37:52;;;;;;;35.30;22.08;;;6.50;99.90;;;;;;5119363;27;20092;-81
2021/12/16 04:40:19;;;;;;;33.45;21.80;;;6.50;99.90;;;;;;5118678;27;20535;-81
2021/12/16 04:42:49;;;;;;;39.60;23.17;;;6.50;99.90;;;;;;5120274;27;20095;-81
2021/12/16 04:45:19;;;;;;;39.20;24.67;;;6.50;99.90;;;;;;5133861;27;20051;-82
2021/12/16 04:47:46;;;;;;;37.75;22.55;;;6.50;99.90;;;;;;5135244;27;20500;-81
2021/12/16 04:50:15;;;;;;;35.63;22.08;;;6.50;99.90;;;;;;5135207;27;20609;-81
2021/12/16 04:52:42;;;;;;;38.05;24.58;;;6.60;99.90;;;;;;5135113;27;20043;-81
2021/12/16 04:55:11;;;;;;;42.08;26.13;;;6.60;99.90;;;;;;5125365;27;20104;-82
2021/12/16 04:57:38;;;;;;;38.00;24.55;;;6.60;99.90;;;;;;5121114;27;20050;-82
2021/12/16 05:00:10;;;;;;;37.92;24.42;;;6.60;99.90;;;;;;5125722;27;20488;-82
2021/12/16 05:02:37;;;;;;;39.72;25.15;;;6.60;99.90;;;;;;5138943;27;20472;-82
2021/12/16 05:05:05;;;;;;;40.47;24.10;;;6.60;99.90;;;;;;5134994;27;20039;-81
2021/12/16 05:07:32;;;;;;;38.10;23.40;;;6.60;99.90;;;;;;5126594;27;20047;-81
2021/12/16 05:10:07;;;;;;;37.95;23.85;;;6.60;99.90;;;;;;5118463;27;20047;-81
2021/12/16 05:12:43;;;;;;;36.83;23.77;;;6.60;99.90;;;;;;5118239;27;20751;-81
2021/12/16 05:15:16;;;;;;;40.28;24.98;;;6.60;99.90;;;;;;5124682;27;20145;-81
2021/12/16 05:17:46;;;;;;;38.58;24.35;;;6.60;99.90;;;;;;5119403;27;20047;-81
2021/12/16 05:20:20;;;;;;;42.88;25.90;;;6.60;99.90;;;;;;5131459;27;20051;-82
2021/12/16 05:25:46;;;;;;;39.33;24.23;;;6.60;99.90;;;;;;5138658;27;20065;-81
2021/12/16 05:28:15;;;;;;;43.00;25.38;;;6.60;99.90;;;;;;5132459;27;20043;-82
2021/12/16 05:30:42;;;;;;;38.00;24.65;;;6.60;99.90;;;;;;5137275;27;20047;-84
2021/12/16 05:33:10;;;;;;;39.20;25.23;;;6.60;99.90;;;;;;5123978;27;20039;-81
2021/12/16 05:35:39;;;;;;;41.03;25.08;;;6.60;99.90;;;;;;5118128;27;20055;-82
2021/12/16 05:38:06;;;;;;;40.75;24.70;;;6.60;99.90;;;;;;5127056;27;20512;-82
2021/12/16 05:40:34;;;;;;;36.55;23.77;;;6.70;99.90;;;;;;5118195;27;20055;-82
2021/12/16 05:43:05;;;;;;;38.75;24.25;;;6.70;99.90;;;;;;5124272;27;20039;-81
2021/12/16 05:45:33;;;;;;;39.30;24.75;;;6.70;99.90;;;;;;5140236;27;20118;-81
2021/12/16 05:48:03;;;;;;;40.13;25.17;;;6.70;99.90;;;;;;5138877;27;20047;-83
2021/12/16 05:50:33;;;;;;;40.47;24.80;;;6.70;99.90;;;;;;5129910;27;20058;-81
2021/12/16 05:53:00;;;;;;;42.47;26.45;;;6.70;99.90;;;;;;5135622;27;20051;-81
2021/12/16 05:55:30;;;;;;;39.63;25.58;;;6.70;99.90;;;;;;5121756;27;20079;-82
2021/12/16 05:57:59;;;;;;;38.65;24.83;;;6.70;99.90;;;;;;5118981;27;20051;-81
2021/12/16 06:00:33;;;;;;;38.45;24.60;;;6.70;99.90;;;;;;5134573;27;20071;-81
2021/12/16 06:03:00;;;;;;;40.28;24.73;;;6.70;99.90;;;;;;5134808;27;20504;-83
2021/12/16 06:05:27;;;;;;;37.67;24.23;;;6.80;99.90;;;;;;5128723;27;20121;-82
2021/12/16 06:07:56;;;;;;;37.65;24.92;;;6.80;99.90;;;;;;5124792;27;20047;-81
2021/12/16 06:13:09;;;;;;;42.60;23.85;;;6.80;99.90;;;;;;5141354;27;20047;-80
2021/12/16 06:29:24;;;;;;;38.05;24.10;;;6.80;99.90;;;;;;5139871;27;20095;-84
2021/12/16 06:31:51;;;;;;;37.00;23.67;;;6.80;99.90;;;;;;5132195;27;20047;-81
2021/12/16 06:34:18;;;;;;;38.70;24.08;;;6.80;99.90;;;;;;5133362;27;20100;-79
2021/12/16 06:36:45;;;;;;;39.40;23.55;;;6.80;99.90;;;;;;5127787;27;20089;-78
2021/12/16 06:39:13;;;;;;;35.45;22.63;;;6.80;99.90;;;;;;5120143;27;20055;-79
2021/12/16 06:41:40;;;;;;;36.22;23.15;;;6.90;99.90;;;;;;5125607;27;20051;-79
2021/12/16 06:44:18;;;;;;;37.38;24.33;;;6.90;99.90;;;;;;5118774;27;20096;-79
2021/12/16 06:46:47;;;;;;;36.13;23.02;;;6.90;99.90;;;;;;5118524;27;20050;-78
2021/12/16 06:49:18;;;;;;;38.33;23.83;;;6.90;99.90;;;;;;5126546;27;20097;-79
2021/12/16 06:51:57;;;;;;;34.97;23.13;;;6.90;99.90;;;;;;5126788;27;20408;-79
2021/12/16 06:54:29;;;;;;;37.67;23.65;;;6.90;99.90;;;;;;5121501;27;20051;-78
2021/12/16 06:59:40;;;;;;;35.95;21.83;;;6.90;99.90;;;;;;5139435;27;20042;-80
2021/12/16 07:05:08;;;;;;;38.85;23.63;;;7.00;99.90;;;;;;5167174;27;20170;-83
2021/12/16 07:07:37;;;;;;;35.33;22.88;;;7.00;99.90;;;;;;5145997;27;20053;-92
2021/12/16 07:10:07;;;;;;;37.90;24.25;;;7.00;99.90;;;;;;5154956;27;20112;-84
2021/12/16 07:12:38;;;;;;;36.70;24.25;;;7.00;99.90;;;;;;5148105;27;20043;-84
2021/12/16 07:15:11;;;;;;;34.97;22.92;;;7.00;99.90;;;;;;5143842;27;20047;-82
2021/12/16 07:17:41;;;;;;;37.47;23.73;;;7.10;99.90;;;;;;5148737;27;20051;-84
2021/12/16 07:20:11;;;;;;;34.03;23.55;;;7.10;99.90;;;;;;5141518;27;20055;-83
2021/12/16 07:22:39;;;;;;;40.20;25.35;;;7.10;99.90;;;;;;5147396;27;20059;-84
2021/12/16 07:25:07;;;;;;;35.22;23.83;;;7.20;99.90;;;;;;5140110;27;20043;-83
2021/12/16 07:27:35;;;;;;;35.97;24.33;;;7.20;99.90;;;;;;5139210;27;20096;-83
2021/12/16 07:30:11;;;;;;;39.58;25.88;;;7.20;99.90;;;;;;5144728;27;20047;-86
2021/12/16 07:32:38;;;;;;;34.70;24.63;;;7.20;99.90;;;;;;5141526;27;20138;-84
2021/12/16 07:35:11;;;;;;;32.70;23.27;;;7.30;99.90;;;;;;5144096;27;20081;-84
2021/12/16 07:37:39;;;;;;;35.38;24.52;;;7.30;99.90;;;;;;5142295;27;20067;-85
2021/12/16 07:40:09;;;;;;;38.95;25.20;;;7.30;99.90;;;;;;5145520;27;20043;-83
2021/12/16 07:42:48;;;;;;;32.83;23.42;;;7.30;99.90;;;;;;5144997;27;20107;-85
2021/12/16 07:45:18;;;;;;;32.85;22.63;;;7.40;99.90;;;;;;5133626;28;20050;-84
2021/12/16 07:47:47;;;;;;;35.05;22.98;;;7.40;99.90;;;;;;5138057;27;20042;-83
2021/12/16 07:50:15;;;;;;;35.38;25.05;;;7.40;99.90;;;;;;5133870;27;20047;-83
2021/12/16 07:52:42;;;;;;;32.80;22.60;;;7.40;99.90;;;;;;5134353;27;20041;-91
2021/12/16 07:55:11;;;;;;;32.90;21.25;;;7.40;99.90;;;;;;5141824;27;20051;-86
2021/12/16 07:57:39;;;;;;;31.33;22.08;;;7.40;99.90;;;;;;5136172;27;20055;-83
2021/12/16 08:00:21;;;;;;;29.73;21.95;;;7.40;99.90;;;;;;5135113;27;20046;-83
2021/12/16 08:02:48;;;;;;;33.05;22.63;;;7.50;99.90;;;;;;5124745;27;20052;-82
2021/12/16 08:05:17;;;;;;;29.20;21.33;;;7.50;99.90;;;;;;5127903;27;20054;-83
2021/12/16 08:07:44;;;;;;;35.70;22.80;;;7.50;99.90;;;;;;5132394;27;20506;-82
2021/12/16 08:10:15;;;;;;;30.33;22.20;;;7.50;99.90;;;;;;5132686;27;20047;-82
2021/12/16 08:12:42;;;;;;;31.73;22.15;;;7.50;99.90;;;;;;5124283;27;20061;-82
2021/12/16 08:15:10;;;;;;;34.85;22.95;;;7.50;99.90;;;;;;5126346;27;20772;-82
2021/12/16 08:17:37;;;;;;;32.00;22.38;;;7.50;99.90;;;;;;5117868;27;20039;-81
2021/12/16 08:20:07;;;;;;;30.20;21.15;;;7.60;99.90;;;;;;5117709;27;20717;-81
2021/12/16 08:22:34;;;;;;;25.45;18.80;;;7.60;99.90;;;;;;5118891;27;20055;-83
2021/12/16 08:25:01;;;;;;;25.35;17.77;;;7.60;99.90;;;;;;5118737;27;20035;-81
2021/12/16 08:27:28;;;;;;;22.23;15.93;;;7.60;99.90;;;;;;5110282;27;20055;-81
2021/12/16 08:29:55;;;;;;;22.17;15.20;;;7.60;99.90;;;;;;5128405;27;20046;-81
2021/12/16 08:32:23;;;;;;;18.70;13.25;;;7.70;99.90;;;;;;5118638;27;20096;-81
2021/12/16 08:34:50;;;;;;;21.02;13.05;;;7.70;99.90;;;;;;5114756;27;20051;-82
2021/12/16 08:37:18;;;;;;;17.13;10.60;;;7.70;99.90;;;;;;5136398;27;20057;-81
2021/12/16 08:39:45;;;;;;;15.00;9.40;;;7.70;99.90;;;;;;5119259;27;20100;-82
2021/12/16 08:42:12;;;;;;;11.80;8.77;;;7.70;99.90;;;;;;5108713;27;20051;-80
2021/12/16 08:44:39;;;;;;;13.80;8.18;;;7.70;99.90;;;;;;5114900;27;20097;-82
2021/12/16 08:47:12;;;;;;;12.80;8.25;;;7.70;99.90;;;;;;5115343;27;20040;-82
2021/12/16 08:49:40;;;;;;;10.90;7.32;;;7.80;99.90;;;;;;5116331;27;20075;-84
2021/12/16 08:52:15;;;;;;;11.88;7.63;;;7.70;99.90;;;;;;5112182;27;20039;-87
2021/12/16 08:54:43;;;;;;;8.73;5.88;;;7.80;99.90;;;;;;5116164;28;20058;-81
2021/12/16 08:57:11;;;;;;;9.73;6.22;;;7.80;99.90;;;;;;5103254;28;20055;-82
2021/12/16 08:59:38;;;;;;;11.98;5.90;;;7.80;99.90;;;;;;5119245;27;20063;-82
2021/12/16 09:02:07;;;;;;;10.88;6.40;;;7.80;99.90;;;;;;5118946;27;20054;-83
2021/12/16 09:04:37;;;;;;;12.05;6.80;;;7.90;99.90;;;;;;5113925;28;20051;-82
2021/12/16 09:07:07;;;;;;;8.52;5.68;;;7.90;99.90;;;;;;5098532;28;20048;-81
2021/12/16 09:09:36;;;;;;;13.43;5.78;;;7.90;99.90;;;;;;5098261;28;20096;-81
2021/12/16 09:12:14;;;;;;;7.68;5.40;;;7.90;99.90;;;;;;5098197;28;20116;-82
2021/12/16 09:14:43;;;;;;;7.05;4.75;;;7.90;99.90;;;;;;5098595;28;20048;-83
2021/12/16 09:17:15;;;;;;;8.02;4.97;;;7.90;99.90;;;;;;5098783;27;20057;-82
2021/12/16 09:19:46;;;;;;;6.55;4.80;;;8.00;99.90;;;;;;5106316;27;20043;-82
2021/12/16 09:22:16;;;;;;;8.20;5.22;;;8.00;99.90;;;;;;5119770;27;20051;-82
2021/12/16 09:24:49;;;;;;;8.65;5.00;;;8.00;99.90;;;;;;5121287;27;20096;-81
2021/12/16 09:27:17;;;;;;;8.52;4.35;;;8.10;99.90;;;;;;5112086;27;20044;-81
2021/12/16 09:29:45;;;;;;;9.43;5.50;;;8.10;99.90;;;;;;5116352;27;20039;-81
2021/12/16 09:32:12;;;;;;;6.40;4.47;;;8.20;99.90;;;;;;5117655;27;20405;-81
2021/12/16 09:34:42;;;;;;;6.82;4.43;;;8.20;99.90;;;;;;5114460;27;20456;-81
2021/12/16 09:37:10;;;;;;;7.88;4.65;;;8.20;99.90;;;;;;5110847;27;20038;-81
2021/12/16 09:39:38;;;;;;;6.70;4.50;;;8.30;99.90;;;;;;5101099;28;20748;-82
2021/12/16 09:42:06;;;;;;;7.35;4.47;;;8.30;99.90;;;;;;5097056;28;20051;-82
2021/12/16 09:44:33;;;;;;;5.95;3.92;;;8.30;99.90;;;;;;5112943;28;20093;-91
2021/12/16 09:47:03;;;;;;;7.85;3.97;;;8.30;99.90;;;;;;5118387;28;20043;-86
2021/12/16 09:49:31;;;;;;;8.68;4.60;;;8.40;99.90;;;;;;5117415;27;20047;-81
2021/12/16 09:51:59;;;;;;;6.97;4.15;;;8.40;99.90;;;;;;5105252;28;20047;-81
2021/12/16 09:54:30;;;;;;;6.88;4.07;;;8.50;99.90;;;;;;5113467;28;20059;-81
2021/12/16 09:56:59;;;;;;;7.40;4.65;;;8.50;99.90;;;;;;5096948;28;20051;-81
2021/12/16 09:59:28;;;;;;;5.40;3.85;;;8.50;99.90;;;;;;5113156;27;20047;-82
2021/12/16 10:01:58;;;;;;;6.90;3.88;;;8.60;99.90;;;;;;5117413;27;20051;-80
2021/12/16 10:04:31;;;;;;;8.00;4.20;;;8.60;99.90;;;;;;5113845;27;20061;-83
2021/12/16 10:07:04;;;;;;;5.80;3.83;;;8.60;99.90;;;;;;5102140;27;20043;-80
2021/12/16 10:09:32;;;;;;;9.25;4.82;;;8.60;99.90;;;;;;5096742;28;20051;-81
2021/12/16 10:12:06;;;;;;;6.97;4.18;;;8.70;99.90;;;;;;5095914;28;20461;-81
2021/12/16 10:14:48;;;;;;;8.95;4.10;;;8.70;99.90;;;;;;5111941;27;20468;-81
2021/12/16 10:17:24;;;;;;;7.60;4.30;;;8.70;99.90;;;;;;5108636;28;20048;-82
2021/12/16 10:19:53;;;;;;;9.70;6.22;;;8.70;99.90;;;;;;5097068;28;20567;-82
2021/12/16 10:22:24;;;;;;;9.23;5.63;;;8.70;99.90;;;;;;5096484;28;20051;-82
2021/12/16 10:24:54;;;;;;;6.18;4.07;;;8.80;99.90;;;;;;5100365;28;20495;-82
2021/12/16 10:27:25;;;;;;;7.25;4.45;;;8.90;99.90;;;;;;5096756;28;20171;-81
2021/12/16 10:30:05;;;;;;;5.45;4.05;;;8.80;99.90;;;;;;5107085;27;20095;-81
2021/12/16 10:32:38;;;;;;;5.82;4.20;;;8.80;99.90;;;;;;5114381;27;20476;-85
2021/12/16 10:35:31;;;;;;;6.70;4.35;;;8.90;99.90;;;;;;5120484;27;20055;-90
2021/12/16 10:38:01;;;;;;;7.32;4.53;;;8.90;99.90;;;;;;5112963;27;20055;-81
2021/12/16 10:40:43;;;;;;;6.25;3.95;;;8.90;99.90;;;;;;5113401;28;20431;-83
2021/12/16 10:43:30;;;;;;;6.72;4.40;;;8.90;99.90;;;;;;5096336;28;20058;-83
2021/12/16 10:46:08;;;;;;;6.28;4.20;;;9.00;99.90;;;;;;5096343;28;20051;-82
2021/12/16 10:48:41;;;;;;;6.45;4.10;;;9.00;99.90;;;;;;5114694;27;20682;-81
2021/12/16 10:51:16;;;;;;;5.43;3.97;;;9.00;99.90;;;;;;5116547;27;20047;-83
2021/12/16 10:53:43;;;;;;;9.68;4.30;;;9.10;99.90;;;;;;5116511;27;20047;-82
2021/12/16 10:56:10;;;;;;;8.23;4.50;;;9.10;99.90;;;;;;5110870;28;20047;-81
2021/12/16 10:59:00;;;;;;;6.10;3.70;;;9.10;99.90;;;;;;5115751;27;20066;-82
2021/12/16 11:05:37;;;;;;;6.63;4.32;;;9.20;99.90;;;;;;5191452;27;20109;-72
2021/12/16 11:08:08;;;;;;;7.30;4.68;;;9.20;99.90;;;;;;5166324;27;20038;-72
2021/12/16 11:10:37;;;;;;;6.93;4.20;;;9.10;99.90;;;;;;5148265;27;20043;-72
2021/12/16 11:13:10;;;;;;;5.93;4.20;;;9.20;99.90;;;;;;5142609;27;20061;-73
2021/12/16 11:15:44;;;;;;;7.03;4.55;;;9.20;99.90;;;;;;5132240;27;20059;-73
2021/12/16 11:18:20;;;;;;;7.30;4.70;;;9.20;99.90;;;;;;5149027;27;20043;-72
2021/12/16 11:20:47;;;;;;;5.85;4.10;;;9.20;99.90;;;;;;5131001;27;20055;-72
2021/12/16 11:23:18;;;;;;;8.57;4.60;;;9.30;99.90;;;;;;5147112;27;20042;-72
2021/12/16 11:25:53;;;;;;;7.95;4.47;;;9.20;99.90;;;;;;5165509;27;20046;-74
2021/12/16 11:28:35;;;;;;;6.35;4.63;;;9.30;99.90;;;;;;5169729;27;20401;-72
2021/12/16 11:31:12;;;;;;;8.30;4.22;;;9.40;99.90;;;;;;5150621;27;20047;-72
2021/12/16 11:33:50;;;;;;;8.10;5.03;;;9.40;99.90;;;;;;5147900;27;20100;-73
2021/12/16 11:36:23;;;;;;;7.90;4.55;;;9.40;99.90;;;;;;5126869;27;20050;-72
2021/12/16 11:38:51;;;;;;;9.23;4.88;;;9.50;99.90;;;;;;5157257;27;20078;-72
2021/12/16 11:41:24;;;;;;;7.47;4.63;;;9.50;99.90;;;;;;5130111;27;20704;-72
2021/12/16 11:44:12;;;;;;;6.18;4.35;;;9.50;99.90;;;;;;5161418;27;20042;-72
2021/12/16 11:46:58;;;;;;;9.95;4.70;;;9.50;99.90;;;;;;5151381;27;20743;-72
2021/12/16 11:49:33;;;;;;;10.57;4.50;;;9.40;99.90;;;;;;5150709;27;20121;-72
2021/12/16 11:52:03;;;;;;;10.65;3.90;;;9.50;99.90;;;;;;5134522;27;20095;-71
2021/12/16 11:54:33;;;;;;;6.40;4.40;;;9.50;99.90;;;;;;5166345;27;20078;-71
2021/12/16 11:57:12;;;;;;;8.05;4.30;;;9.50;99.90;;;;;;5147484;27;20076;-71
2021/12/16 11:59:55;;;;;;;6.47;3.90;;;9.60;99.90;;;;;;5149036;27;20730;-71
2021/12/16 12:02:35;;;;;;;7.15;4.20;;;9.60;99.90;;;;;;5149912;27;20107;-71
2021/12/16 12:05:34;;;;;;;5.82;4.32;;;9.60;99.90;;;;;;5164064;27;20051;-71
2021/12/16 12:08:06;;;;;;;5.95;4.10;;;9.70;99.90;;;;;;5129238;27;20459;-71
2021/12/16 12:10:50;;;;;;;6.70;4.32;;;9.70;99.90;;;;;;5160190;27;20131;-72
2021/12/16 12:13:25;;;;;;;7.93;4.85;;;9.70;99.90;;;;;;5156390;27;20712;-72
2021/12/16 12:16:18;;;;;;;8.00;4.28;;;9.70;99.90;;;;;;5153613;27;20047;-72
2021/12/16 12:18:57;;;;;;;6.47;3.72;;;9.70;99.90;;;;;;5133809;27;20111;-71
2021/12/16 12:21:35;;;;;;;8.57;4.78;;;9.60;99.90;;;;;;5117709;27;20051;-71
2021/12/16 12:24:16;;;;;;;6.03;3.97;;;9.60;99.90;;;;;;5133735;27;20169;-71
2021/12/16 12:26:53;;;;;;;5.72;3.97;;;9.60;99.90;;;;;;5117552;27;20047;-71
2021/12/16 12:29:28;;;;;;;5.68;4.03;;;9.70;99.90;;;;;;5147982;27;20077;-72
2021/12/16 12:32:02;;;;;;;6.03;3.95;;;9.70;99.90;;;;;;5119028;27;20039;-72
2021/12/16 12:34:31;;;;;;;5.78;3.70;;;9.80;99.90;;;;;;5131075;27;20088;-73
2021/12/16 12:37:00;;;;;;;5.68;3.67;;;9.90;99.90;;;;;;5138475;27;20093;-73
2021/12/16 12:39:33;;;;;;;5.28;3.80;;;9.80;99.90;;;;;;5139028;27;20069;-72
2021/12/16 12:42:00;;;;;;;5.32;3.35;;;9.80;99.90;;;;;;5127052;27;20072;-73
2021/12/16 12:44:27;;;;;;;7.55;4.15;;;9.80;99.90;;;;;;5141842;27;20497;-73
2021/12/16 12:46:54;;;;;;;6.40;3.80;;;9.70;99.90;;;;;;5126387;27;20067;-72
2021/12/16 12:49:25;;;;;;;4.65;3.47;;;9.70;99.90;;;;;;5119109;27;20075;-72
2021/12/16 12:52:09;;;;;;;6.65;3.95;;;9.70;99.90;;;;;;5144435;27;20134;-72
2021/12/16 12:54:38;;;;;;;5.25;3.40;;;9.80;99.90;;;;;;5138646;27;20102;-72
2021/12/16 12:57:25;;;;;;;4.97;3.42;;;9.90;99.90;;;;;;5125464;27;20586;-72
2021/12/16 12:59:53;;;;;;;8.25;3.90;;;9.80;99.90;;;;;;5118679;27;20051;-72
2021/12/16 13:02:23;;;;;;;5.57;3.30;;;9.80;99.90;;;;;;5116907;27;20051;-72
2021/12/16 13:05:16;;;;;;;4.90;3.20;;;9.80;99.90;;;;;;5134432;27;20108;-72
2021/12/16 13:07:54;;;;;;;4.30;3.05;;;9.80;99.90;;;;;;5152653;27;20683;-72
2021/12/16 13:10:27;;;;;;;4.57;3.05;;;9.80;99.90;;;;;;5121383;27;20456;-72
2021/12/16 13:13:16;;;;;;;7.72;3.47;;;9.80;99.90;;;;;;5117158;27;20559;-72
2021/12/16 13:15:51;;;;;;;9.02;4.70;;;9.80;99.90;;;;;;5145106;27;20078;-72
2021/12/16 13:27:38;;;;;;;4.30;2.90;;;9.90;99.90;;;;;;5135785;27;20043;-73
2021/12/16 13:29:42;;;;;;;;;;;9.90;99.90;;;;;;5124711;27;20051;-73
2021/12/16 13:32:26;;;;;;;4.25;3.00;;;10.00;99.90;;;;;;5147386;27;19993;-72
2021/12/16 13:35:04;;;;;;;7.90;3.38;;;10.00;99.90;;;;;;5128785;27;20082;-72
2021/12/16 13:37:35;;;;;;;7.70;3.30;;;10.00;99.90;;;;;;5147198;27;20509;-72
2021/12/16 13:40:08;;;;;;;5.03;3.53;;;10.10;99.90;;;;;;5124026;27;20452;-72
2021/12/16 13:42:59;;;;;;;5.03;2.85;;;10.00;99.90;;;;;;5152995;27;20096;-73
2021/12/16 13:45:47;;;;;;;4.95;2.88;;;10.00;99.90;;;;;;5153431;27;20070;-72
2021/12/16 14:07:56;;;;;;;4.40;2.92;;;10.10;99.90;;;;;;5151647;27;20047;-72
2021/12/16 14:10:53;;;;;;;4.75;2.88;;;10.00;99.90;;;;;;5126853;27;20047;-72
2021/12/16 14:48:08;;;;;;;5.60;3.70;;;10.10;99.90;;;;;;5064883;28;20090;-72
2021/12/16 14:50:46;;;;;;;8.20;3.85;;;10.00;99.90;;;;;;5048104;28;20063;-72
2021/12/16 14:53:19;;;;;;;7.18;4.15;;;10.10;99.90;;;;;;5111463;27;20120;-72
2021/12/16 14:55:48;;;;;;;7.70;4.10;;;10.10;99.90;;;;;;5152281;27;20099;-72
2021/12/16 14:58:19;;;;;;;7.47;4.50;;;10.10;99.90;;;;;;5123793;27;20066;-73
2021/12/16 15:05:33;;;;;;;6.72;4.10;;;10.10;99.90;;;;;;5189730;27;20118;-72
2021/12/16 15:08:25;;;;;;;8.68;4.55;;;10.10;99.90;;;;;;5162650;27;20042;-72
2021/12/16 15:10:54;;;;;;;9.75;4.68;;;10.00;99.90;;;;;;5149358;27;20055;-73
2021/12/16 15:13:29;;;;;;;7.45;3.88;;;10.00;99.90;;;;;;5131004;27;20082;-72
2021/12/16 15:43:21;;;;;;;9.95;5.80;;;9.90;99.90;;;;;;5148716;27;20043;-73
2021/12/16 15:45:54;;;;;;;12.57;7.38;;;9.90;99.90;;;;;;5140940;27;20043;-73
2021/12/16 15:48:27;;;;;;;10.20;6.25;;;9.90;99.90;;;;;;5163127;27;20104;-73
2021/12/16 15:50:57;;;;;;;10.88;5.65;;;9.90;99.90;;;;;;5166721;27;20074;-73
2021/12/16 15:53:35;;;;;;;9.13;5.43;;;9.90;99.90;;;;;;5148342;27;20103;-73
2021/12/16 15:56:18;;;;;;;7.88;5.50;;;9.90;99.90;;;;;;5152268;27;20035;-72
2021/12/16 19:05:17;;;;;;;11.60;6.13;;;10.00;99.90;;;;;;5187292;27;20196;-80
2021/12/16 19:08:23;;;;;;;14.02;7.75;;;9.90;99.90;;;;;;5192798;27;20191;-80
2021/12/16 19:10:51;;;;;;;11.48;5.97;;;9.90;99.90;;;;;;5151256;27;20506;-82
2021/12/16 19:13:31;;;;;;;9.43;5.63;;;9.90;99.90;;;;;;5137706;27;20047;-87
2021/12/16 19:16:17;;;;;;;11.05;5.35;;;9.90;99.90;;;;;;5148106;27;20054;-84
2021/12/16 19:18:48;;;;;;;8.20;5.20;;;10.00;99.90;;;;;;5142782;27;20043;-80
2021/12/16 19:21:35;;;;;;;7.47;5.47;;;10.00;99.90;;;;;;5146057;27;20091;-79
2021/12/16 19:24:05;;;;;;;9.32;5.55;;;9.90;99.90;;;;;;5153527;27;20050;-80
2021/12/16 19:26:33;;;;;;;9.00;5.28;;;9.90;99.90;;;;;;5144209;27;20042;-80
2021/12/16 19:29:01;;;;;;;9.82;5.05;;;9.90;99.90;;;;;;5147908;27;20047;-84
2021/12/16 19:31:31;;;;;;;10.30;5.90;;;9.90;99.90;;;;;;5145032;27;20103;-81
2021/12/16 19:34:02;;;;;;;9.02;5.53;;;9.90;99.90;;;;;;5149041;27;20038;-81
2021/12/16 19:36:29;;;;;;;9.27;4.95;;;9.90;99.90;;;;;;5148678;27;20043;-81
2021/12/16 19:38:56;;;;;;;8.15;4.82;;;9.90;99.90;;;;;;5147874;27;20106;-81
2021/12/16 19:41:26;;;;;;;8.30;5.15;;;9.90;99.90;;;;;;5148746;27;20059;-80
2021/12/16 19:43:54;;;;;;;8.38;5.32;;;9.90;99.90;;;;;;5139818;27;20098;-79
2021/12/16 19:46:21;;;;;;;10.80;5.43;;;9.90;99.90;;;;;;5133576;27;20108;-80
2021/12/16 19:48:49;;;;;;;9.88;5.55;;;10.00;99.90;;;;;;5135658;27;20171;-79
2021/12/16 19:51:19;;;;;;;12.68;7.40;;;10.00;99.90;;;;;;5154264;27;20046;-80
2021/12/16 19:53:46;;;;;;;10.80;6.15;;;10.00;99.90;;;;;;5154346;27;20075;-79
2021/12/16 19:56:16;;;;;;;12.88;6.50;;;10.00;99.90;;;;;;5148935;27;20578;-80
2021/12/16 19:58:45;;;;;;;16.70;8.18;;;9.90;99.90;;;;;;5144842;27;20042;-81
2021/12/16 20:01:25;;;;;;;13.15;6.82;;;9.90;99.90;;;;;;5153790;27;20110;-81
2021/12/16 20:04:03;;;;;;;11.27;6.22;;;9.90;99.90;;;;;;5151778;27;20047;-82
2021/12/16 20:06:32;;;;;;;13.02;7.10;;;9.90;99.90;;;;;;5139309;27;20047;-80
2021/12/16 20:09:01;;;;;;;10.48;6.03;;;9.90;99.90;;;;;;5141317;27;20054;-80
2021/12/16 20:11:33;;;;;;;10.27;6.55;;;9.90;99.90;;;;;;5136279;27;20039;-79
2021/12/16 20:14:01;;;;;;;12.15;6.55;;;9.90;99.90;;;;;;5148690;27;20050;-80
2021/12/16 20:16:32;;;;;;;8.75;5.70;;;10.00;99.90;;;;;;5148409;27;20046;-79
2021/12/16 20:19:01;;;;;;;10.38;5.53;;;10.00;99.90;;;;;;5127615;27;20080;-81
2021/12/16 20:21:33;;;;;;;11.93;6.45;;;10.00;99.90;;;;;;5121935;27;20042;-79
2021/12/16 20:24:05;;;;;;;9.10;5.03;;;10.00;99.90;;;;;;5139819;27;20377;-80
2021/12/16 20:26:41;;;;;;;7.50;5.00;;;10.00;99.90;;;;;;5138623;27;20099;-82
2021/12/16 20:29:18;;;;;;;6.97;5.05;;;10.10;99.90;;;;;;5128989;27;20100;-81
2021/12/16 20:32:04;;;;;;;10.57;5.68;;;10.00;99.90;;;;;;5118569;27;20047;-83
2021/12/16 20:34:40;;;;;;;8.45;5.45;;;10.10;99.90;;;;;;5130805;27;20054;-80
2021/12/16 20:37:10;;;;;;;9.82;5.90;;;10.00;99.90;;;;;;5139596;27;20115;-80
2021/12/16 20:39:53;;;;;;;8.63;5.38;;;10.00;99.90;;;;;;5138410;27;20047;-81
2021/12/16 20:42:30;;;;;;;9.15;6.05;;;10.00;99.90;;;;;;5139656;27;20057;-80